Time,TemperatureF,DewpointF,PressureIn,WindDirection,WindDirectionDegrees,WindSpeedMPH,WindSpeedGustMPH,Humidity,HourlyPrecipIn,Conditions,Clouds,dailyrainin,SoftwareType,DateUTC
2013-04-06 00:02:00,37.6,20.7,30.00,NW,315,2.7,-999.0,50,-99.99,,,0.00,Acu-Link.com,2013-04-06 04:02:00,
2013-04-06 00:17:00,37.0,20.1,30.00,NW,315,1.7,-999.0,50,-99.99,,,0.00,Acu-Link.com,2013-04-06 04:17:00,
2013-04-06 00:33:00,36.9,20.5,30.00,NW,315,2.2,-999.0,51,-99.99,,,0.00,Acu-Link.com,2013-04-06 04:33:00,
2013-04-06 00:48:00,36.7,20.3,30.00,NW,315,3.2,-999.0,51,-99.99,,,0.00,Acu-Link.com,2013-04-06 04:48:00,
2013-04-06 01:03:00,36.3,20.4,30.01,West,270,0.0,-999.0,52,-99.99,,,0.00,Acu-Link.com,2013-04-06 05:03:00,
2013-04-06 01:19:00,35.6,19.7,30.02,NNW,337,2.7,-999.0,52,-99.99,,,0.00,Acu-Link.com,2013-04-06 05:19:00,
2013-04-06 01:34:00,35.1,20.2,30.03,NNW,337,3.7,-999.0,54,-99.99,,,0.00,Acu-Link.com,2013-04-06 05:34:00,
2013-04-06 01:49:00,35.2,20.7,30.04,NNW,337,1.1,-999.0,55,-99.99,,,0.00,Acu-Link.com,2013-04-06 05:49:00,
2013-04-06 02:04:00,34.7,20.6,30.05,North,0,3.2,-999.0,56,-99.99,,,0.00,Acu-Link.com,2013-04-06 06:04:00,
2013-04-06 02:20:00,34.2,20.6,30.06,North,0,1.1,-999.0,57,-99.99,,,0.00,Acu-Link.com,2013-04-06 06:20:00,
2013-04-06 02:35:00,33.8,20.2,30.06,North,0,2.2,-999.0,57,-99.99,,,0.00,Acu-Link.com,2013-04-06 06:35:00,
2013-04-06 02:50:00,33.4,19.8,30.06,North,0,2.2,-999.0,57,-99.99,,,0.00,Acu-Link.com,2013-04-06 06:50:00,
2013-04-06 03:06:00,33.4,19.8,30.07,North,0,3.2,-999.0,57,-99.99,,,0.00,Acu-Link.com,2013-04-06 07:06:00,
2013-04-06 03:36:00,32.9,19.4,30.09,North,0,2.2,-999.0,57,-99.99,,,0.00,Acu-Link.com,2013-04-06 07:36:00,
2013-04-06 03:51:00,32.9,18.9,30.09,North,0,3.2,-999.0,56,-99.99,,,0.00,Acu-Link.com,2013-04-06 07:51:00,
2013-04-06 04:11:00,32.5,18.6,30.10,NNW,337,3.7,-999.0,56,-99.99,,,0.00,Acu-Link.com,2013-04-06 08:11:00,
2013-04-06 04:26:00,32.4,17.6,30.10,NNW,337,3.7,-999.0,54,-99.99,,,0.00,Acu-Link.com,2013-04-06 08:26:00,
2013-04-06 05:11:00,31.5,15.5,30.11,NNE,22,2.2,-999.0,51,-99.99,,,0.00,Acu-Link.com,2013-04-06 09:11:00,
2013-04-06 05:27:00,30.9,14.9,30.12,NNW,337,3.7,-999.0,51,-99.99,,,0.00,Acu-Link.com,2013-04-06 09:27:00,
2013-04-06 05:42:00,30.4,14.0,30.13,NNW,337,1.1,-999.0,50,-99.99,,,0.00,Acu-Link.com,2013-04-06 09:42:00,
2013-04-06 05:57:00,30.0,13.6,30.13,NNW,337,2.7,-999.0,50,-99.99,,,0.00,Acu-Link.com,2013-04-06 09:57:00,
2013-04-06 06:12:00,30.0,14.1,30.13,NE,45,1.7,-999.0,51,-99.99,,,0.00,Acu-Link.com,2013-04-06 10:12:00,
2013-04-06 06:27:00,29.8,14.3,30.14,SSE,157,1.1,-999.0,52,-99.99,,,0.00,Acu-Link.com,2013-04-06 10:27:00,
2013-04-06 06:43:00,29.3,14.3,30.15,SSE,157,0.0,-999.0,53,-99.99,,,0.00,Acu-Link.com,2013-04-06 10:43:00,
2013-04-06 06:58:00,28.6,14.5,30.16,SSE,157,0.0,-999.0,55,-99.99,,,0.00,Acu-Link.com,2013-04-06 10:58:00,
2013-04-06 07:29:00,28.6,14.9,30.19,SSE,157,1.1,-999.0,56,-99.99,,,0.00,Acu-Link.com,2013-04-06 11:29:00,
2013-04-06 07:44:00,29.8,16.0,30.20,SSE,157,1.7,-999.0,56,-99.99,,,0.00,Acu-Link.com,2013-04-06 11:44:00,
2013-04-06 08:30:00,32.9,15.9,30.22,NNW,337,3.2,-999.0,49,-99.99,,,0.00,Acu-Link.com,2013-04-06 12:30:00,
2013-04-06 08:45:00,34.2,16.1,30.22,NNE,22,1.7,-999.0,47,-99.99,,,0.00,Acu-Link.com,2013-04-06 12:45:00,
2013-04-06 09:16:00,35.6,15.3,30.23,WNW,292,2.7,-999.0,43,-99.99,,,0.00,Acu-Link.com,2013-04-06 13:16:00,
2013-04-06 09:31:00,36.9,16.0,30.23,NNE,22,5.8,-999.0,42,-99.99,,,0.00,Acu-Link.com,2013-04-06 13:31:00,
2013-04-06 10:17:00,40.3,15.5,30.24,ESE,112,2.2,-999.0,36,-99.99,,,0.00,Acu-Link.com,2013-04-06 14:17:00,
2013-04-06 10:32:00,40.1,15.3,30.24,NNW,337,3.7,-999.0,36,-99.99,,,0.00,Acu-Link.com,2013-04-06 14:32:00,
2013-04-06 10:47:00,40.8,14.6,30.24,SE,135,5.3,-999.0,34,-99.99,,,0.00,Acu-Link.com,2013-04-06 14:47:00,
2013-04-06 11:03:00,41.9,14.9,30.24,SE,135,2.2,-999.0,33,-99.99,,,0.00,Acu-Link.com,2013-04-06 15:03:00,
2013-04-06 11:18:00,42.1,13.7,30.24,WSW,247,4.2,-999.0,31,-99.99,,,0.00,Acu-Link.com,2013-04-06 15:18:00,
2013-04-06 11:33:00,45.3,14.9,30.23,NW,315,2.2,-999.0,29,-99.99,,,0.00,Acu-Link.com,2013-04-06 15:33:00,
2013-04-06 12:04:00,45.1,14.0,30.22,ESE,112,3.7,-999.0,28,-99.99,,,0.00,Acu-Link.com,2013-04-06 16:04:00,
2013-04-06 12:34:00,45.9,15.5,30.22,NW,315,0.0,-999.0,29,-99.99,,,0.00,Acu-Link.com,2013-04-06 16:34:00,
2013-04-06 12:49:00,46.2,14.9,30.21,SSW,202,2.2,-999.0,28,-99.99,,,0.00,Acu-Link.com,2013-04-06 16:49:00,
2013-04-06 13:05:00,47.3,15.9,30.21,West,270,2.2,-999.0,28,-99.99,,,0.00,Acu-Link.com,2013-04-06 17:05:00,
2013-04-06 13:20:00,48.4,16.8,30.21,NE,45,2.7,-999.0,28,-99.99,,,0.00,Acu-Link.com,2013-04-06 17:20:00,
2013-04-06 13:35:00,49.6,17.0,30.20,East,90,3.2,-999.0,27,-99.99,,,0.00,Acu-Link.com,2013-04-06 17:35:00,
2013-04-06 13:51:00,48.0,14.8,30.20,ESE,112,2.7,-999.0,26,-99.99,,,0.00,Acu-Link.com,2013-04-06 17:51:00,
2013-04-06 14:21:00,51.3,16.7,30.19,ESE,112,1.7,-999.0,25,-99.99,,,0.00,Acu-Link.com,2013-04-06 18:21:00,
2013-04-06 14:52:00,49.8,14.5,30.18,SE,135,2.7,-999.0,24,-99.99,,,0.00,Acu-Link.com,2013-04-06 18:52:00,
2013-04-06 15:07:00,53.2,16.4,30.17,ESE,112,3.7,-999.0,23,-99.99,,,0.00,Acu-Link.com,2013-04-06 19:07:00,
2013-04-06 15:23:00,52.7,16.9,30.16,NW,315,2.2,-999.0,24,-99.99,,,0.00,Acu-Link.com,2013-04-06 19:23:00,
2013-04-06 15:38:00,52.0,15.4,30.15,ESE,112,3.2,-999.0,23,-99.99,,,0.00,Acu-Link.com,2013-04-06 19:38:00,
2013-04-06 15:53:00,53.8,14.8,30.14,NE,45,2.2,-999.0,21,-99.99,,,0.00,Acu-Link.com,2013-04-06 19:53:00,
2013-04-06 16:08:00,54.0,15.0,30.13,West,270,2.7,-999.0,21,-99.99,,,0.00,Acu-Link.com,2013-04-06 20:08:00,
2013-04-06 16:39:00,53.6,17.7,30.12,WNW,292,2.7,-999.0,24,-99.99,,,0.00,Acu-Link.com,2013-04-06 20:39:00,
2013-04-06 16:54:00,53.8,17.9,30.12,SSW,202,2.7,-999.0,24,-99.99,,,0.00,Acu-Link.com,2013-04-06 20:54:00,
2013-04-06 17:25:00,57.7,16.9,30.13,ENE,67,4.2,-999.0,20,-99.99,,,0.00,Acu-Link.com,2013-04-06 21:25:00,
2013-04-06 17:40:00,55.8,14.2,30.14,SSW,202,3.2,-999.0,19,-99.99,,,0.00,Acu-Link.com,2013-04-06 21:40:00,
2013-04-06 17:55:00,56.5,17.1,30.13,ESE,112,1.7,-999.0,21,-99.99,,,0.00,Acu-Link.com,2013-04-06 21:55:00,
2013-04-06 18:41:00,52.5,14.8,30.13,SSW,202,2.2,-999.0,22,-99.99,,,0.00,Acu-Link.com,2013-04-06 22:41:00,
2013-04-06 18:57:00,52.9,15.1,30.13,SSW,202,0.0,-999.0,22,-99.99,,,0.00,Acu-Link.com,2013-04-06 22:57:00,
2013-04-06 19:12:00,51.3,14.8,30.13,SSW,202,1.7,-999.0,23,-99.99,,,0.00,Acu-Link.com,2013-04-06 23:12:00,
2013-04-06 19:27:00,50.0,14.7,30.13,SSW,202,0.0,-999.0,24,-99.99,,,0.00,Acu-Link.com,2013-04-06 23:27:00,
2013-04-06 19:43:00,48.7,14.5,30.13,SSW,202,0.0,-999.0,25,-99.99,,,0.00,Acu-Link.com,2013-04-06 23:43:00,
2013-04-06 19:58:00,47.3,15.9,30.13,SSW,202,0.0,-999.0,28,-99.99,,,0.00,Acu-Link.com,2013-04-06 23:58:00,
2013-04-06 20:13:00,46.2,18.7,30.13,SSW,202,1.7,-999.0,33,-99.99,,,0.00,Acu-Link.com,2013-04-07 00:13:00,
2013-04-06 20:44:00,44.4,19.1,30.12,SSW,202,0.0,-999.0,36,-99.99,,,0.00,Acu-Link.com,2013-04-07 00:44:00,
2013-04-06 20:59:00,44.1,20.7,30.13,SSW,202,0.0,-999.0,39,-99.99,,,0.00,Acu-Link.com,2013-04-07 00:59:00,
2013-04-06 21:14:00,43.7,21.0,30.12,SSW,202,0.0,-999.0,40,-99.99,,,0.00,Acu-Link.com,2013-04-07 01:14:00,
2013-04-06 21:29:00,43.0,19.8,30.12,SSW,202,1.7,-999.0,39,-99.99,,,0.00,Acu-Link.com,2013-04-07 01:29:00,
2013-04-06 21:44:00,43.7,17.2,30.12,South,180,1.7,-999.0,34,-99.99,,,0.00,Acu-Link.com,2013-04-07 01:44:00,
2013-04-06 22:15:00,43.3,17.5,30.12,South,180,0.0,-999.0,35,-99.99,,,0.00,Acu-Link.com,2013-04-07 02:15:00,
2013-04-06 22:30:00,42.1,23.3,30.12,South,180,0.0,-999.0,47,-99.99,,,0.00,Acu-Link.com,2013-04-07 02:30:00,
2013-04-06 22:46:00,40.1,23.0,30.12,South,180,0.0,-999.0,50,-99.99,,,0.00,Acu-Link.com,2013-04-07 02:46:00,
2013-04-06 23:16:00,38.7,22.6,30.12,South,180,0.0,-999.0,52,-99.99,,,0.00,Acu-Link.com,2013-04-07 03:16:00,
2013-04-06 23:32:00,38.1,22.5,30.11,South,180,0.0,-999.0,53,-99.99,,,0.00,Acu-Link.com,2013-04-07 03:32:00,